sensor_id;sensor_type;location;lat;lon;timestamp;P1;durP1;ratioP1;P2;durP2;ratioP2
9729;SDS011;4904;49.152;11.004;2023-04-02T00:02:54;2.10;;;1.20;;
9729;SDS011;4904;49.152;11.004;2023-04-02T00:05:37;2.25;;;1.30;;
9729;SDS011;4904;49.152;11.004;2023-04-02T00:08:17;1.08;;;1.02;;
9729;SDS011;4904;49.152;11.004;2023-04-02T00:10:53;1.38;;;1.20;;
9729;SDS011;4904;49.152;11.004;2023-04-02T00:13:22;2.28;;;1.38;;
9729;SDS011;4904;49.152;11.004;2023-04-02T00:15:56;1.95;;;1.58;;
9729;SDS011;4904;49.152;11.004;2023-04-02T00:18:24;4.07;;;1.38;;
9729;SDS011;4904;49.152;11.004;2023-04-02T00:20:52;1.30;;;1.20;;
9729;SDS011;4904;49.152;11.004;2023-04-02T00:23:34;3.92;;;1.27;;
9729;SDS011;4904;49.152;11.004;2023-04-02T00:26:05;1.30;;;1.20;;
9729;SDS011;4904;49.152;11.004;2023-04-02T00:28:45;4.88;;;1.27;;
9729;SDS011;4904;49.152;11.004;2023-04-02T00:31:14;1.40;;;1.30;;
9729;SDS011;4904;49.152;11.004;2023-04-02T00:33:43;2.08;;;1.30;;
9729;SDS011;4904;49.152;11.004;2023-04-02T00:36:11;1.50;;;1.30;;
9729;SDS011;4904;49.152;11.004;2023-04-02T00:38:38;1.40;;;1.30;;
9729;SDS011;4904;49.152;11.004;2023-04-02T00:41:09;2.20;;;1.20;;
9729;SDS011;4904;49.152;11.004;2023-04-02T00:43:42;1.67;;;1.10;;
9729;SDS011;4904;49.152;11.004;2023-04-02T00:46:11;1.92;;;1.10;;
9729;SDS011;4904;49.152;11.004;2023-04-02T00:48:43;2.83;;;1.40;;
9729;SDS011;4904;49.152;11.004;2023-04-02T00:51:16;1.63;;;0.90;;
9729;SDS011;4904;49.152;11.004;2023-04-02T00:53:48;1.45;;;1.02;;
9729;SDS011;4904;49.152;11.004;2023-04-02T00:56:18;1.08;;;1.02;;
9729;SDS011;4904;49.152;11.004;2023-04-02T00:58:50;2.60;;;1.40;;
9729;SDS011;4904;49.152;11.004;2023-04-02T01:01:22;2.67;;;1.10;;
9729;SDS011;4904;49.152;11.004;2023-04-02T01:03:52;3.17;;;1.40;;
9729;SDS011;4904;49.152;11.004;2023-04-02T01:06:22;3.17;;;1.40;;
9729;SDS011;4904;49.152;11.004;2023-04-02T01:08:59;1.52;;;1.17;;
9729;SDS011;4904;49.152;11.004;2023-04-02T01:11:49;2.10;;;1.23;;
9729;SDS011;4904;49.152;11.004;2023-04-02T01:14:33;1.00;;;0.90;;
9729;SDS011;4904;49.152;11.004;2023-04-02T01:17:12;1.40;;;1.30;;
9729;SDS011;4904;49.152;11.004;2023-04-02T01:19:57;2.53;;;1.55;;
9729;SDS011;4904;49.152;11.004;2023-04-02T01:22:50;1.58;;;1.48;;
9729;SDS011;4904;49.152;11.004;2023-04-02T01:25:24;1.02;;;0.98;;
9729;SDS011;4904;49.152;11.004;2023-04-02T01:27:56;3.10;;;1.27;;
9729;SDS011;4904;49.152;11.004;2023-04-02T01:30:33;1.98;;;1.33;;
9729;SDS011;4904;49.152;11.004;2023-04-02T01:33:01;2.45;;;1.40;;
9729;SDS011;4904;49.152;11.004;2023-04-02T01:35:30;1.63;;;1.30;;
9729;SDS011;4904;49.152;11.004;2023-04-02T01:38:01;2.67;;;1.30;;
9729;SDS011;4904;49.152;11.004;2023-04-02T01:40:36;1.45;;;1.27;;
9729;SDS011;4904;49.152;11.004;2023-04-02T01:43:14;1.70;;;1.35;;
9729;SDS011;4904;49.152;11.004;2023-04-02T01:45:46;1.38;;;1.27;;
9729;SDS011;4904;49.152;11.004;2023-04-02T01:48:14;1.60;;;1.30;;
9729;SDS011;4904;49.152;11.004;2023-04-02T01:50:44;1.90;;;1.33;;
9729;SDS011;4904;49.152;11.004;2023-04-02T01:53:14;1.45;;;1.23;;
9729;SDS011;4904;49.152;11.004;2023-04-02T01:55:43;2.42;;;1.45;;
9729;SDS011;4904;49.152;11.004;2023-04-02T01:58:13;1.55;;;1.20;;
9729;SDS011;4904;49.152;11.004;2023-04-02T02:00:43;2.20;;;1.40;;
9729;SDS011;4904;49.152;11.004;2023-04-02T02:03:14;1.60;;;1.40;;
9729;SDS011;4904;49.152;11.004;2023-04-02T02:05:41;1.65;;;1.30;;
9729;SDS011;4904;49.152;11.004;2023-04-02T02:08:12;2.50;;;1.45;;
9729;SDS011;4904;49.152;11.004;2023-04-02T02:10:47;2.38;;;1.50;;
9729;SDS011;4904;49.152;11.004;2023-04-02T02:13:15;1.65;;;1.27;;
9729;SDS011;4904;49.152;11.004;2023-04-02T02:15:42;1.17;;;1.10;;
9729;SDS011;4904;49.152;11.004;2023-04-02T02:18:11;2.42;;;1.33;;
9729;SDS011;4904;49.152;11.004;2023-04-02T02:20:39;1.20;;;1.10;;
9729;SDS011;4904;49.152;11.004;2023-04-02T02:23:08;1.50;;;1.40;;
9729;SDS011;4904;49.152;11.004;2023-04-02T02:25:37;1.67;;;1.30;;
9729;SDS011;4904;49.152;11.004;2023-04-02T02:28:05;1.90;;;1.30;;
9729;SDS011;4904;49.152;11.004;2023-04-02T02:30:35;1.98;;;1.40;;
9729;SDS011;4904;49.152;11.004;2023-04-02T02:33:08;1.63;;;1.52;;
9729;SDS011;4904;49.152;11.004;2023-04-02T02:35:43;1.50;;;1.40;;
9729;SDS011;4904;49.152;11.004;2023-04-02T02:38:31;2.90;;;1.50;;
9729;SDS011;4904;49.152;11.004;2023-04-02T02:41:06;1.60;;;1.50;;
9729;SDS011;4904;49.152;11.004;2023-04-02T02:43:38;1.38;;;1.27;;
9729;SDS011;4904;49.152;11.004;2023-04-02T02:46:11;1.83;;;1.08;;
9729;SDS011;4904;49.152;11.004;2023-04-02T02:48:43;3.25;;;1.50;;
9729;SDS011;4904;49.152;11.004;2023-04-02T02:51:13;1.33;;;1.20;;
9729;SDS011;4904;49.152;11.004;2023-04-02T02:53:47;1.40;;;1.30;;
9729;SDS011;4904;49.152;11.004;2023-04-02T02:56:15;1.45;;;1.35;;
9729;SDS011;4904;49.152;11.004;2023-04-02T02:58:43;2.65;;;1.58;;
9729;SDS011;4904;49.152;11.004;2023-04-02T03:01:10;1.88;;;1.30;;
9729;SDS011;4904;49.152;11.004;2023-04-02T03:03:37;1.50;;;1.40;;
9729;SDS011;4904;49.152;11.004;2023-04-02T03:06:07;1.27;;;1.17;;
9729;SDS011;4904;49.152;11.004;2023-04-02T03:08:37;2.28;;;1.40;;
9729;SDS011;4904;49.152;11.004;2023-04-02T03:11:08;1.30;;;1.20;;
9729;SDS011;4904;49.152;11.004;2023-04-02T03:13:38;1.58;;;1.30;;
9729;SDS011;4904;49.152;11.004;2023-04-02T03:16:08;1.55;;;1.40;;
9729;SDS011;4904;49.152;11.004;2023-04-02T03:18:40;1.40;;;1.30;;
9729;SDS011;4904;49.152;11.004;2023-04-02T03:21:15;1.55;;;1.30;;
9729;SDS011;4904;49.152;11.004;2023-04-02T03:23:48;3.08;;;1.40;;
9729;SDS011;4904;49.152;11.004;2023-04-02T03:26:20;1.77;;;1.50;;
9729;SDS011;4904;49.152;11.004;2023-04-02T03:28:53;1.88;;;1.60;;
9729;SDS011;4904;49.152;11.004;2023-04-02T03:31:24;1.50;;;1.40;;
9729;SDS011;4904;49.152;11.004;2023-04-02T03:33:57;3.40;;;1.60;;
9729;SDS011;4904;49.152;11.004;2023-04-02T03:36:29;2.72;;;1.50;;
9729;SDS011;4904;49.152;11.004;2023-04-02T03:39:00;1.67;;;1.40;;
9729;SDS011;4904;49.152;11.004;2023-04-02T03:41:37;3.08;;;1.65;;
9729;SDS011;4904;49.152;11.004;2023-04-02T03:44:13;1.60;;;1.50;;
9729;SDS011;4904;49.152;11.004;2023-04-02T03:46:46;2.03;;;1.60;;
9729;SDS011;4904;49.152;11.004;2023-04-02T03:49:23;1.88;;;1.50;;
9729;SDS011;4904;49.152;11.004;2023-04-02T03:51:56;1.70;;;1.60;;
9729;SDS011;4904;49.152;11.004;2023-04-02T03:54:27;2.13;;;1.42;;
9729;SDS011;4904;49.152;11.004;2023-04-02T03:56:55;1.90;;;1.55;;
9729;SDS011;4904;49.152;11.004;2023-04-02T03:59:25;2.85;;;1.52;;
9729;SDS011;4904;49.152;11.004;2023-04-02T04:01:57;2.53;;;2.13;;
9729;SDS011;4904;49.152;11.004;2023-04-02T04:04:28;1.70;;;1.60;;
9729;SDS011;4904;49.152;11.004;2023-04-02T04:06:58;1.75;;;1.50;;
9729;SDS011;4904;49.152;11.004;2023-04-02T04:09:28;4.07;;;1.75;;
9729;SDS011;4904;49.152;11.004;2023-04-02T04:12:01;2.00;;;1.30;;
9729;SDS011;4904;49.152;11.004;2023-04-02T04:14:39;2.78;;;1.45;;
9729;SDS011;4904;49.152;11.004;2023-04-02T04:17:10;1.52;;;1.40;;
9729;SDS011;4904;49.152;11.004;2023-04-02T04:19:49;1.90;;;1.60;;
9729;SDS011;4904;49.152;11.004;2023-04-02T04:22:21;2.47;;;1.38;;
9729;SDS011;4904;49.152;11.004;2023-04-02T04:24:54;1.67;;;1.30;;
9729;SDS011;4904;49.152;11.004;2023-04-02T04:27:22;3.15;;;1.40;;
9729;SDS011;4904;49.152;11.004;2023-04-02T04:29:58;1.90;;;1.70;;
9729;SDS011;4904;49.152;11.004;2023-04-02T04:32:30;1.90;;;1.40;;
9729;SDS011;4904;49.152;11.004;2023-04-02T04:35:01;1.60;;;1.30;;
9729;SDS011;4904;49.152;11.004;2023-04-02T04:37:34;1.80;;;1.63;;
9729;SDS011;4904;49.152;11.004;2023-04-02T04:40:08;1.35;;;1.30;;
9729;SDS011;4904;49.152;11.004;2023-04-02T04:42:40;2.35;;;1.42;;
9729;SDS011;4904;49.152;11.004;2023-04-02T04:45:12;2.67;;;1.60;;
9729;SDS011;4904;49.152;11.004;2023-04-02T04:47:56;1.42;;;1.33;;
9729;SDS011;4904;49.152;11.004;2023-04-02T04:50:27;2.10;;;1.60;;
9729;SDS011;4904;49.152;11.004;2023-04-02T04:52:59;1.83;;;1.60;;
9729;SDS011;4904;49.152;11.004;2023-04-02T04:55:34;1.52;;;1.40;;
9729;SDS011;4904;49.152;11.004;2023-04-02T04:58:07;1.58;;;1.48;;
9729;SDS011;4904;49.152;11.004;2023-04-02T05:00:49;1.30;;;1.30;;
9729;SDS011;4904;49.152;11.004;2023-04-02T05:03:24;2.22;;;1.30;;
9729;SDS011;4904;49.152;11.004;2023-04-02T05:05:58;2.60;;;1.40;;
9729;SDS011;4904;49.152;11.004;2023-04-02T05:08:31;1.80;;;1.65;;
9729;SDS011;4904;49.152;11.004;2023-04-02T05:11:02;2.22;;;1.80;;
9729;SDS011;4904;49.152;11.004;2023-04-02T05:13:33;1.63;;;1.52;;
9729;SDS011;4904;49.152;11.004;2023-04-02T05:16:08;1.65;;;1.55;;
9729;SDS011;4904;49.152;11.004;2023-04-02T05:18:40;1.63;;;1.52;;
9729;SDS011;4904;49.152;11.004;2023-04-02T05:21:13;1.90;;;1.33;;
9729;SDS011;4904;49.152;11.004;2023-04-02T05:23:47;1.50;;;1.40;;
9729;SDS011;4904;49.152;11.004;2023-04-02T05:26:20;2.05;;;1.63;;
9729;SDS011;4904;49.152;11.004;2023-04-02T05:28:50;1.42;;;1.33;;
9729;SDS011;4904;49.152;11.004;2023-04-02T05:31:23;1.95;;;1.50;;
9729;SDS011;4904;49.152;11.004;2023-04-02T05:33:51;2.83;;;1.70;;
9729;SDS011;4904;49.152;11.004;2023-04-02T05:36:21;1.52;;;1.42;;
9729;SDS011;4904;49.152;11.004;2023-04-02T05:38:51;2.63;;;1.73;;
9729;SDS011;4904;49.152;11.004;2023-04-02T05:41:21;1.85;;;1.75;;
9729;SDS011;4904;49.152;11.004;2023-04-02T05:43:55;4.63;;;1.45;;
9729;SDS011;4904;49.152;11.004;2023-04-02T05:46:30;1.90;;;1.80;;
9729;SDS011;4904;49.152;11.004;2023-04-02T05:49:02;2.72;;;1.75;;
9729;SDS011;4904;49.152;11.004;2023-04-02T05:51:35;2.55;;;1.70;;
9729;SDS011;4904;49.152;11.004;2023-04-02T05:54:13;2.05;;;1.85;;
9729;SDS011;4904;49.152;11.004;2023-04-02T05:56:47;2.15;;;1.95;;
9729;SDS011;4904;49.152;11.004;2023-04-02T05:59:18;1.80;;;1.70;;
9729;SDS011;4904;49.152;11.004;2023-04-02T06:01:48;2.45;;;2.08;;
9729;SDS011;4904;49.152;11.004;2023-04-02T06:04:23;7.38;;;2.03;;
9729;SDS011;4904;49.152;11.004;2023-04-02T06:06:58;1.95;;;1.85;;
9729;SDS011;4904;49.152;11.004;2023-04-02T06:09:35;3.58;;;1.92;;
9729;SDS011;4904;49.152;11.004;2023-04-02T06:12:17;4.28;;;1.90;;
9729;SDS011;4904;49.152;11.004;2023-04-02T06:14:49;2.58;;;1.80;;
9729;SDS011;4904;49.152;11.004;2023-04-02T06:17:17;2.55;;;2.35;;
9729;SDS011;4904;49.152;11.004;2023-04-02T06:19:46;2.58;;;2.35;;
9729;SDS011;4904;49.152;11.004;2023-04-02T06:22:21;2.33;;;2.10;;
9729;SDS011;4904;49.152;11.004;2023-04-02T06:24:54;2.70;;;1.98;;
9729;SDS011;4904;49.152;11.004;2023-04-02T06:27:25;3.13;;;2.15;;
9729;SDS011;4904;49.152;11.004;2023-04-02T06:29:53;2.25;;;1.90;;
9729;SDS011;4904;49.152;11.004;2023-04-02T06:32:24;2.10;;;2.00;;
9729;SDS011;4904;49.152;11.004;2023-04-02T06:34:51;2.63;;;2.40;;
9729;SDS011;4904;49.152;11.004;2023-04-02T06:37:20;2.65;;;2.45;;
9729;SDS011;4904;49.152;11.004;2023-04-02T06:39:54;3.25;;;2.92;;
9729;SDS011;4904;49.152;11.004;2023-04-02T06:42:22;3.65;;;3.05;;
9729;SDS011;4904;49.152;11.004;2023-04-02T06:44:52;3.17;;;2.92;;
9729;SDS011;4904;49.152;11.004;2023-04-02T06:47:21;3.20;;;2.70;;
9729;SDS011;4904;49.152;11.004;2023-04-02T06:49:55;3.65;;;2.80;;
9729;SDS011;4904;49.152;11.004;2023-04-02T06:52:27;3.22;;;2.92;;
9729;SDS011;4904;49.152;11.004;2023-04-02T06:54:57;3.28;;;3.08;;
9729;SDS011;4904;49.152;11.004;2023-04-02T06:57:24;3.20;;;2.90;;
9729;SDS011;4904;49.152;11.004;2023-04-02T06:59:51;4.70;;;2.95;;
9729;SDS011;4904;49.152;11.004;2023-04-02T07:02:26;2.80;;;2.60;;
9729;SDS011;4904;49.152;11.004;2023-04-02T07:04:57;3.42;;;3.10;;
9729;SDS011;4904;49.152;11.004;2023-04-02T07:07:28;3.28;;;2.97;;
9729;SDS011;4904;49.152;11.004;2023-04-02T07:09:55;3.63;;;3.33;;
9729;SDS011;4904;49.152;11.004;2023-04-02T07:12:24;3.83;;;3.00;;
9729;SDS011;4904;49.152;11.004;2023-04-02T07:14:51;3.47;;;3.17;;
9729;SDS011;4904;49.152;11.004;2023-04-02T07:17:19;4.10;;;3.38;;
9729;SDS011;4904;49.152;11.004;2023-04-02T07:19:46;3.58;;;3.28;;
9729;SDS011;4904;49.152;11.004;2023-04-02T07:22:14;3.92;;;2.95;;
9729;SDS011;4904;49.152;11.004;2023-04-02T07:24:42;3.72;;;3.13;;
9729;SDS011;4904;49.152;11.004;2023-04-02T07:27:11;4.15;;;3.75;;
9729;SDS011;4904;49.152;11.004;2023-04-02T07:29:39;3.95;;;3.65;;
9729;SDS011;4904;49.152;11.004;2023-04-02T07:32:07;3.10;;;2.80;;
9729;SDS011;4904;49.152;11.004;2023-04-02T07:34:35;4.10;;;3.70;;
9729;SDS011;4904;49.152;11.004;2023-04-02T07:37:02;3.78;;;3.42;;
9729;SDS011;4904;49.152;11.004;2023-04-02T07:39:29;4.35;;;3.92;;
9729;SDS011;4904;49.152;11.004;2023-04-02T07:41:57;4.97;;;4.50;;
9729;SDS011;4904;49.152;11.004;2023-04-02T07:44:27;5.18;;;4.20;;
9729;SDS011;4904;49.152;11.004;2023-04-02T07:46:54;4.50;;;4.18;;
9729;SDS011;4904;49.152;11.004;2023-04-02T07:49:21;3.78;;;3.47;;
9729;SDS011;4904;49.152;11.004;2023-04-02T07:51:48;4.65;;;4.25;;
9729;SDS011;4904;49.152;11.004;2023-04-02T07:54:17;4.78;;;4.10;;
9729;SDS011;4904;49.152;11.004;2023-04-02T07:56:44;3.65;;;3.35;;
9729;SDS011;4904;49.152;11.004;2023-04-02T07:59:10;4.45;;;4.05;;
9729;SDS011;4904;49.152;11.004;2023-04-02T08:01:39;4.70;;;4.30;;
9729;SDS011;4904;49.152;11.004;2023-04-02T08:04:08;3.70;;;3.33;;
9729;SDS011;4904;49.152;11.004;2023-04-02T08:06:43;5.07;;;4.07;;
9729;SDS011;4904;49.152;11.004;2023-04-02T08:09:11;3.80;;;3.40;;
9729;SDS011;4904;49.152;11.004;2023-04-02T08:11:38;5.25;;;4.82;;
9729;SDS011;4904;49.152;11.004;2023-04-02T08:14:06;5.00;;;4.57;;
9729;SDS011;4904;49.152;11.004;2023-04-02T08:16:44;5.10;;;4.60;;
9729;SDS011;4904;49.152;11.004;2023-04-02T08:19:12;5.45;;;4.95;;
9729;SDS011;4904;49.152;11.004;2023-04-02T08:21:39;5.75;;;5.10;;
9729;SDS011;4904;49.152;11.004;2023-04-02T08:24:06;4.82;;;4.35;;
9729;SDS011;4904;49.152;11.004;2023-04-02T08:26:34;6.30;;;4.47;;
9729;SDS011;4904;49.152;11.004;2023-04-02T08:29:01;5.38;;;4.88;;
9729;SDS011;4904;49.152;11.004;2023-04-02T08:31:28;6.10;;;5.50;;
9729;SDS011;4904;49.152;11.004;2023-04-02T08:33:56;4.68;;;4.28;;
9729;SDS011;4904;49.152;11.004;2023-04-02T08:36:25;5.05;;;4.55;;
9729;SDS011;4904;49.152;11.004;2023-04-02T08:38:55;5.90;;;5.00;;
9729;SDS011;4904;49.152;11.004;2023-04-02T08:41:22;5.85;;;5.35;;
9729;SDS011;4904;49.152;11.004;2023-04-02T08:44:04;4.65;;;4.25;;
9729;SDS011;4904;49.152;11.004;2023-04-02T08:46:42;5.80;;;5.20;;
9729;SDS011;4904;49.152;11.004;2023-04-02T08:49:14;9.02;;;6.43;;
9729;SDS011;4904;49.152;11.004;2023-04-02T08:51:43;5.93;;;5.32;;
9729;SDS011;4904;49.152;11.004;2023-04-02T08:54:14;5.85;;;5.25;;
9729;SDS011;4904;49.152;11.004;2023-04-02T08:56:48;7.18;;;5.63;;
9729;SDS011;4904;49.152;11.004;2023-04-02T08:59:21;4.35;;;3.95;;
9729;SDS011;4904;49.152;11.004;2023-04-02T09:01:57;6.55;;;5.53;;
9729;SDS011;4904;49.152;11.004;2023-04-02T09:04:47;5.53;;;5.03;;
9729;SDS011;4904;49.152;11.004;2023-04-02T09:07:14;5.65;;;5.05;;
9729;SDS011;4904;49.152;11.004;2023-04-02T09:09:42;5.63;;;5.13;;
9729;SDS011;4904;49.152;11.004;2023-04-02T09:12:15;8.07;;;7.25;;
9729;SDS011;4904;49.152;11.004;2023-04-02T09:14:47;6.82;;;5.40;;
9729;SDS011;4904;49.152;11.004;2023-04-02T09:17:21;5.70;;;5.18;;
9729;SDS011;4904;49.152;11.004;2023-04-02T09:19:53;10.02;;;7.90;;
9729;SDS011;4904;49.152;11.004;2023-04-02T09:22:22;4.00;;;3.60;;
9729;SDS011;4904;49.152;11.004;2023-04-02T09:24:51;3.90;;;3.60;;
9729;SDS011;4904;49.152;11.004;2023-04-02T09:27:18;4.78;;;4.00;;
9729;SDS011;4904;49.152;11.004;2023-04-02T09:29:47;5.90;;;3.60;;
9729;SDS011;4904;49.152;11.004;2023-04-02T09:35:12;4.07;;;3.78;;
9729;SDS011;4904;49.152;11.004;2023-04-02T09:37:41;3.85;;;3.55;;
9729;SDS011;4904;49.152;11.004;2023-04-02T09:40:16;2.60;;;2.40;;
9729;SDS011;4904;49.152;11.004;2023-04-02T09:42:49;2.50;;;2.30;;
9729;SDS011;4904;49.152;11.004;2023-04-02T09:45:36;2.42;;;2.22;;
9729;SDS011;4904;49.152;11.004;2023-04-02T09:48:04;3.63;;;3.33;;
9729;SDS011;4904;49.152;11.004;2023-04-02T09:50:48;2.70;;;2.50;;
9729;SDS011;4904;49.152;11.004;2023-04-02T09:53:25;3.17;;;2.90;;
9729;SDS011;4904;49.152;11.004;2023-04-02T09:56:06;3.00;;;2.80;;
9729;SDS011;4904;49.152;11.004;2023-04-02T09:58:34;3.65;;;3.35;;
9729;SDS011;4904;49.152;11.004;2023-04-02T10:01:01;3.90;;;3.60;;
9729;SDS011;4904;49.152;11.004;2023-04-02T10:03:30;2.17;;;2.08;;
9729;SDS011;4904;49.152;11.004;2023-04-02T10:06:04;1.80;;;1.70;;
9729;SDS011;4904;49.152;11.004;2023-04-02T10:08:33;4.82;;;4.43;;
9729;SDS011;4904;49.152;11.004;2023-04-02T10:11:02;4.65;;;3.88;;
9729;SDS011;4904;49.152;11.004;2023-04-02T10:13:34;3.78;;;2.78;;
9729;SDS011;4904;49.152;11.004;2023-04-02T10:16:09;1.90;;;1.80;;
9729;SDS011;4904;49.152;11.004;2023-04-02T10:18:41;1.70;;;1.60;;
9729;SDS011;4904;49.152;11.004;2023-04-02T10:21:14;1.42;;;1.33;;
9729;SDS011;4904;49.152;11.004;2023-04-02T10:23:43;2.10;;;2.00;;
9729;SDS011;4904;49.152;11.004;2023-04-02T10:26:23;2.35;;;2.15;;
9729;SDS011;4904;49.152;11.004;2023-04-02T10:29:17;2.40;;;2.20;;
9729;SDS011;4904;49.152;11.004;2023-04-02T10:31:57;1.70;;;1.60;;
9729;SDS011;4904;49.152;11.004;2023-04-02T10:34:31;1.67;;;1.58;;
9729;SDS011;4904;49.152;11.004;2023-04-02T10:37:08;1.77;;;1.67;;
9729;SDS011;4904;49.152;11.004;2023-04-02T10:39:51;2.38;;;1.40;;
9729;SDS011;4904;49.152;11.004;2023-04-02T10:42:23;1.50;;;1.40;;
9729;SDS011;4904;49.152;11.004;2023-04-02T10:44:56;1.15;;;1.15;;
9729;SDS011;4904;49.152;11.004;2023-04-02T10:47:29;2.03;;;1.83;;
9729;SDS011;4904;49.152;11.004;2023-04-02T10:50:06;2.33;;;2.13;;
9729;SDS011;4904;49.152;11.004;2023-04-02T10:52:50;2.05;;;1.80;;
9729;SDS011;4904;49.152;11.004;2023-04-02T10:55:24;2.10;;;1.88;;
9729;SDS011;4904;49.152;11.004;2023-04-02T10:57:56;2.03;;;1.70;;
9729;SDS011;4904;49.152;11.004;2023-04-02T11:00:30;1.60;;;1.50;;
9729;SDS011;4904;49.152;11.004;2023-04-02T11:03:01;2.50;;;2.30;;
9729;SDS011;4904;49.152;11.004;2023-04-02T11:05:33;1.83;;;1.65;;
9729;SDS011;4904;49.152;11.004;2023-04-02T11:08:11;1.27;;;1.17;;
9729;SDS011;4904;49.152;11.004;2023-04-02T11:10:45;2.78;;;1.92;;
9729;SDS011;4904;49.152;11.004;2023-04-02T11:13:17;2.00;;;1.80;;
9729;SDS011;4904;49.152;11.004;2023-04-02T11:15:48;2.65;;;2.45;;
9729;SDS011;4904;49.152;11.004;2023-04-02T11:18:20;2.33;;;2.13;;
9729;SDS011;4904;49.152;11.004;2023-04-02T11:23:35;1.75;;;1.65;;
9729;SDS011;4904;49.152;11.004;2023-04-02T11:29:17;1.98;;;1.88;;
9729;SDS011;4904;49.152;11.004;2023-04-02T11:31:50;1.60;;;1.50;;
9729;SDS011;4904;49.152;11.004;2023-04-02T11:37:29;1.45;;;1.35;;
9729;SDS011;4904;49.152;11.004;2023-04-02T11:40:05;1.52;;;1.42;;
9729;SDS011;4904;49.152;11.004;2023-04-02T11:42:48;2.10;;;2.00;;
9729;SDS011;4904;49.152;11.004;2023-04-02T11:48:26;1.70;;;1.60;;
9729;SDS011;4904;49.152;11.004;2023-04-02T11:50:54;1.50;;;1.38;;
9729;SDS011;4904;49.152;11.004;2023-04-02T11:53:23;1.80;;;1.70;;
9729;SDS011;4904;49.152;11.004;2023-04-02T11:56:06;1.30;;;1.20;;
9729;SDS011;4904;49.152;11.004;2023-04-02T11:58:45;1.40;;;1.30;;
9729;SDS011;4904;49.152;11.004;2023-04-02T12:01:23;1.60;;;1.50;;
9729;SDS011;4904;49.152;11.004;2023-04-02T12:06:55;1.80;;;1.70;;
9729;SDS011;4904;49.152;11.004;2023-04-02T12:09:41;1.70;;;1.60;;
9729;SDS011;4904;49.152;11.004;2023-04-02T12:12:22;2.20;;;1.73;;
9729;SDS011;4904;49.152;11.004;2023-04-02T12:14:52;1.42;;;1.33;;
9729;SDS011;4904;49.152;11.004;2023-04-02T12:17:23;1.70;;;1.60;;
9729;SDS011;4904;49.152;11.004;2023-04-02T12:19:54;1.50;;;1.40;;
9729;SDS011;4904;49.152;11.004;2023-04-02T12:22:23;1.90;;;1.80;;
9729;SDS011;4904;49.152;11.004;2023-04-02T12:24:52;1.50;;;1.40;;
9729;SDS011;4904;49.152;11.004;2023-04-02T12:27:25;1.52;;;1.42;;
9729;SDS011;4904;49.152;11.004;2023-04-02T12:29:54;2.10;;;1.90;;
9729;SDS011;4904;49.152;11.004;2023-04-02T12:32:35;2.10;;;1.90;;
9729;SDS011;4904;49.152;11.004;2023-04-02T12:35:03;1.60;;;1.50;;
9729;SDS011;4904;49.152;11.004;2023-04-02T12:37:30;1.65;;;1.55;;
9729;SDS011;4904;49.152;11.004;2023-04-02T12:39:58;2.17;;;1.98;;
9729;SDS011;4904;49.152;11.004;2023-04-02T12:42:32;2.97;;;2.70;;
9729;SDS011;4904;49.152;11.004;2023-04-02T12:45:00;3.20;;;2.50;;
9729;SDS011;4904;49.152;11.004;2023-04-02T12:47:28;2.45;;;2.25;;
9729;SDS011;4904;49.152;11.004;2023-04-02T12:49:56;1.83;;;1.70;;
9729;SDS011;4904;49.152;11.004;2023-04-02T12:52:26;2.63;;;1.70;;
9729;SDS011;4904;49.152;11.004;2023-04-02T12:54:55;2.20;;;2.00;;
9729;SDS011;4904;49.152;11.004;2023-04-02T12:57:29;1.92;;;1.75;;
9729;SDS011;4904;49.152;11.004;2023-04-02T13:00:02;3.08;;;2.78;;
9729;SDS011;4904;49.152;11.004;2023-04-02T13:02:50;2.45;;;1.73;;
9729;SDS011;4904;49.152;11.004;2023-04-02T13:05:31;1.48;;;1.38;;
9729;SDS011;4904;49.152;11.004;2023-04-02T13:08:01;1.50;;;1.40;;
9729;SDS011;4904;49.152;11.004;2023-04-02T13:10:29;4.43;;;2.83;;
9729;SDS011;4904;49.152;11.004;2023-04-02T13:12:59;2.53;;;1.88;;
9729;SDS011;4904;49.152;11.004;2023-04-02T13:15:28;1.77;;;1.67;;
9729;SDS011;4904;49.152;11.004;2023-04-02T13:18:01;1.70;;;1.60;;
9729;SDS011;4904;49.152;11.004;2023-04-02T13:20:31;3.60;;;2.30;;
9729;SDS011;4904;49.152;11.004;2023-04-02T13:23:01;3.03;;;2.28;;
9729;SDS011;4904;49.152;11.004;2023-04-02T13:25:48;1.50;;;1.40;;
9729;SDS011;4904;49.152;11.004;2023-04-02T13:28:16;2.03;;;1.80;;
9729;SDS011;4904;49.152;11.004;2023-04-02T13:30:43;1.60;;;1.30;;
9729;SDS011;4904;49.152;11.004;2023-04-02T13:33:11;2.78;;;2.58;;
9729;SDS011;4904;49.152;11.004;2023-04-02T13:35:38;2.55;;;1.58;;
9729;SDS011;4904;49.152;11.004;2023-04-02T13:38:05;1.95;;;1.70;;
9729;SDS011;4904;49.152;11.004;2023-04-02T13:40:33;1.70;;;1.60;;
9729;SDS011;4904;49.152;11.004;2023-04-02T13:43:01;1.85;;;1.75;;
9729;SDS011;4904;49.152;11.004;2023-04-02T13:45:31;1.60;;;1.50;;
9729;SDS011;4904;49.152;11.004;2023-04-02T13:47:59;1.30;;;1.20;;
9729;SDS011;4904;49.152;11.004;2023-04-02T13:50:30;2.75;;;2.30;;
9729;SDS011;4904;49.152;11.004;2023-04-02T13:52:59;1.90;;;1.67;;
9729;SDS011;4904;49.152;11.004;2023-04-02T13:55:33;1.90;;;1.80;;
9729;SDS011;4904;49.152;11.004;2023-04-02T13:58:03;1.40;;;1.30;;
9729;SDS011;4904;49.152;11.004;2023-04-02T14:00:32;1.75;;;1.65;;
9729;SDS011;4904;49.152;11.004;2023-04-02T14:03:02;1.70;;;1.60;;
9729;SDS011;4904;49.152;11.004;2023-04-02T14:05:35;1.50;;;1.40;;
9729;SDS011;4904;49.152;11.004;2023-04-02T14:08:12;1.27;;;1.20;;
9729;SDS011;4904;49.152;11.004;2023-04-02T14:13:37;1.58;;;1.48;;
9729;SDS011;4904;49.152;11.004;2023-04-02T14:16:19;1.50;;;1.40;;
9729;SDS011;4904;49.152;11.004;2023-04-02T14:19:04;1.70;;;1.60;;
9729;SDS011;4904;49.152;11.004;2023-04-02T14:21:50;1.77;;;1.50;;
9729;SDS011;4904;49.152;11.004;2023-04-02T14:24:27;1.38;;;1.27;;
9729;SDS011;4904;49.152;11.004;2023-04-02T14:27:02;1.35;;;1.25;;
9729;SDS011;4904;49.152;11.004;2023-04-02T14:29:40;1.55;;;1.45;;
9729;SDS011;4904;49.152;11.004;2023-04-02T14:32:14;1.40;;;1.30;;
9729;SDS011;4904;49.152;11.004;2023-04-02T14:34:49;1.63;;;1.52;;
9729;SDS011;4904;49.152;11.004;2023-04-02T14:37:24;1.80;;;1.67;;
9729;SDS011;4904;49.152;11.004;2023-04-02T14:40:01;1.73;;;1.63;;
9729;SDS011;4904;49.152;11.004;2023-04-02T14:42:34;2.40;;;2.20;;
9729;SDS011;4904;49.152;11.004;2023-04-02T14:45:06;2.00;;;1.80;;
9729;SDS011;4904;49.152;11.004;2023-04-02T14:47:44;2.13;;;1.95;;
9729;SDS011;4904;49.152;11.004;2023-04-02T14:50:15;2.30;;;2.10;;
9729;SDS011;4904;49.152;11.004;2023-04-02T14:52:46;2.50;;;2.30;;
9729;SDS011;4904;49.152;11.004;2023-04-02T14:55:22;2.65;;;2.45;;
9729;SDS011;4904;49.152;11.004;2023-04-02T14:57:55;3.40;;;3.10;;
9729;SDS011;4904;49.152;11.004;2023-04-02T15:00:28;3.83;;;3.53;;
9729;SDS011;4904;49.152;11.004;2023-04-02T15:03:03;2.97;;;2.78;;
9729;SDS011;4904;49.152;11.004;2023-04-02T15:05:37;3.05;;;2.75;;
9729;SDS011;4904;49.152;11.004;2023-04-02T15:08:11;3.78;;;2.78;;
9729;SDS011;4904;49.152;11.004;2023-04-02T15:10:46;3.20;;;2.70;;
9729;SDS011;4904;49.152;11.004;2023-04-02T15:13:20;4.03;;;3.58;;
9729;SDS011;4904;49.152;11.004;2023-04-02T15:15:53;4.07;;;3.30;;
9729;SDS011;4904;49.152;11.004;2023-04-02T15:18:24;13.55;;;9.85;;
9729;SDS011;4904;49.152;11.004;2023-04-02T15:20:53;16.45;;;11.05;;
9729;SDS011;4904;49.152;11.004;2023-04-02T15:23:30;4.38;;;3.88;;
9729;SDS011;4904;49.152;11.004;2023-04-02T15:26:10;3.88;;;3.58;;
9729;SDS011;4904;49.152;11.004;2023-04-02T15:28:45;3.97;;;3.58;;
9729;SDS011;4904;49.152;11.004;2023-04-02T15:31:16;4.72;;;4.32;;
9729;SDS011;4904;49.152;11.004;2023-04-02T15:33:51;5.80;;;4.93;;
9729;SDS011;4904;49.152;11.004;2023-04-02T15:36:31;5.20;;;4.78;;
9729;SDS011;4904;49.152;11.004;2023-04-02T15:39:32;4.10;;;3.80;;
9729;SDS011;4904;49.152;11.004;2023-04-02T15:42:17;5.43;;;4.93;;
9729;SDS011;4904;49.152;11.004;2023-04-02T15:44:57;5.57;;;5.07;;
9729;SDS011;4904;49.152;11.004;2023-04-02T15:47:56;5.15;;;4.65;;
9729;SDS011;4904;49.152;11.004;2023-04-02T15:50:53;5.78;;;5.18;;
9729;SDS011;4904;49.152;11.004;2023-04-02T15:53:30;6.40;;;5.10;;
9729;SDS011;4904;49.152;11.004;2023-04-02T15:56:06;9.70;;;7.32;;